createdAt,value
2018-11-03T00:00:57.671Z,783.12
2018-11-03T00:03:27.645Z,786.17
2018-11-03T00:05:57.541Z,783.20
2018-11-03T00:08:27.065Z,792.27
2018-11-03T00:10:56.549Z,785.17
2018-11-03T00:13:27.149Z,791.85
2018-11-03T00:15:56.612Z,788.45
2018-11-03T00:18:26.070Z,796.83
2018-11-03T00:20:55.515Z,794.42
2018-11-03T00:23:25.020Z,801.10
2018-11-03T00:25:55.523Z,798.50
2018-11-03T00:28:25.033Z,802.08
2018-11-03T00:30:54.603Z,797.52
2018-11-03T00:33:24.154Z,798.92
2018-11-03T00:35:54.208Z,802.07
2018-11-03T00:38:23.770Z,801.20
2018-11-03T00:40:53.209Z,794.67
2018-11-03T00:43:22.769Z,810.90
2018-11-03T00:45:52.185Z,805.65
2018-11-03T00:48:21.697Z,808.35
2018-11-03T00:50:51.310Z,807.67
2018-11-03T00:53:20.700Z,806.38
2018-11-03T00:55:51.160Z,806.95
2018-11-03T00:58:20.637Z,809.42
2018-11-03T01:00:50.194Z,805.50
2018-11-03T01:03:19.609Z,806.60
2018-11-03T01:05:49.262Z,803.12
2018-11-03T01:08:18.711Z,806.23
2018-11-03T01:10:48.160Z,818.43
2018-11-03T01:13:17.614Z,816.80
2018-11-03T01:15:47.090Z,808.15
2018-11-03T01:18:16.530Z,815.42
2018-11-03T01:20:45.914Z,823.05
2018-11-03T01:23:15.459Z,816.27
2018-11-03T01:25:44.995Z,817.35
2018-11-03T01:28:14.603Z,815.57
2018-11-03T01:30:44.132Z,822.08
2018-11-03T01:33:14.620Z,822.85
2018-11-03T01:35:44.179Z,820.40
2018-11-03T01:38:13.533Z,820.20
2018-11-03T01:40:42.972Z,832.02
2018-11-03T01:43:12.439Z,838.67
2018-11-03T01:45:42.086Z,828.73
2018-11-03T01:48:11.603Z,841.85
2018-11-03T01:50:41.081Z,852.20
2018-11-03T01:53:10.566Z,834.20
2018-11-03T01:55:39.957Z,837.60
2018-11-03T01:58:09.417Z,829.57
2018-11-03T02:00:39.399Z,829.53
2018-11-03T02:03:09.847Z,825.88
2018-11-03T02:05:39.415Z,830.30
2018-11-03T02:08:08.910Z,828.67
2018-11-03T02:10:39.361Z,839.80
2018-11-03T02:13:08.753Z,851.85
2018-11-03T02:15:38.296Z,847.20
2018-11-03T02:18:07.852Z,837.10
2018-11-03T02:20:37.355Z,839.50
2018-11-03T02:23:06.910Z,836.43
2018-11-03T02:25:37.327Z,838.60
2018-11-03T02:28:07.766Z,831.80
2018-11-03T02:30:37.226Z,832.67
2018-11-03T02:33:06.644Z,832.62
2018-11-03T02:35:36.100Z,841.75
2018-11-03T02:38:05.554Z,834.20
2018-11-03T02:40:35.008Z,834.30
2018-11-03T02:43:04.863Z,832.02
2018-11-03T02:45:34.263Z,836.15
2018-11-03T02:48:04.363Z,831.47
2018-11-03T02:50:33.843Z,832.05
2018-11-03T02:53:03.245Z,843.00
2018-11-03T02:55:32.665Z,843.10
2018-11-03T02:58:02.214Z,836.82
2018-11-03T03:00:32.723Z,847.42
2018-11-03T03:03:02.230Z,845.52
2018-11-03T03:05:31.773Z,837.27
2018-11-03T03:08:01.209Z,853.17
2018-11-03T03:10:30.684Z,842.40
2018-11-03T03:13:00.120Z,844.55
2018-11-03T03:15:29.674Z,871.40
2018-11-03T03:18:00.173Z,861.97
2018-11-03T03:20:29.736Z,850.70
2018-11-03T03:22:59.265Z,852.15
2018-11-03T03:25:28.669Z,858.80
2018-11-03T03:27:58.117Z,868.10
2018-11-03T03:30:27.616Z,865.95
2018-11-03T03:32:58.152Z,868.50
2018-11-03T03:35:27.558Z,862.30
2018-11-03T03:37:57.054Z,858.27
2018-11-03T03:40:27.533Z,859.75
2018-11-03T03:42:57.013Z,860.67
2018-11-03T03:45:27.158Z,858.40
2018-11-03T03:47:57.735Z,862.97
2018-11-03T03:50:27.297Z,870.90
2018-11-03T03:52:56.775Z,861.70
2018-11-03T03:55:26.164Z,861.12
2018-11-03T03:57:57.622Z,863.40
2018-11-03T04:00:27.123Z,859.65
2018-11-03T04:02:56.585Z,878.65
2018-11-03T04:05:26.031Z,857.55
2018-11-03T04:07:56.473Z,852.65
2018-11-03T04:10:25.971Z,856.70
2018-11-03T04:12:55.471Z,878.37
2018-11-03T04:15:25.692Z,880.87
2018-11-03T04:17:55.277Z,881.08
2018-11-03T04:20:25.777Z,876.73
2018-11-03T04:22:55.310Z,885.00
2018-11-03T04:25:24.729Z,882.62
2018-11-03T04:27:54.245Z,879.37
2018-11-03T04:30:23.682Z,889.20
2018-11-03T04:32:53.128Z,883.87
2018-11-03T04:35:22.504Z,884.73
2018-11-03T04:37:51.984Z,894.82
2018-11-03T04:40:21.480Z,887.72
2018-11-03T04:42:52.037Z,899.00
2018-11-03T04:45:21.523Z,905.42
2018-11-03T04:47:50.977Z,881.20
2018-11-03T04:50:20.443Z,864.83
2018-11-03T04:52:50.836Z,856.63
2018-11-03T04:55:20.384Z,855.87
2018-11-03T04:57:49.731Z,865.70
2018-11-03T05:00:19.179Z,850.98
2018-11-03T05:02:48.747Z,847.33
2018-11-03T05:05:19.236Z,851.05
2018-11-03T05:07:49.275Z,851.45
2018-11-03T05:10:18.848Z,841.10
2018-11-03T05:12:48.236Z,856.38
2018-11-03T05:15:17.774Z,860.02
2018-11-03T05:17:47.178Z,866.87
2018-11-03T05:20:16.609Z,870.45
2018-11-03T05:22:46.033Z,863.70
2018-11-03T05:25:15.663Z,864.05
2018-11-03T05:27:46.049Z,865.03
2018-11-03T05:30:15.560Z,875.02
2018-11-03T05:32:45.026Z,856.05
2018-11-03T05:35:14.496Z,859.90
2018-11-03T05:37:43.921Z,851.37
2018-11-03T05:40:13.502Z,848.78
2018-11-03T05:42:42.959Z,848.23
2018-11-03T05:45:12.489Z,841.15
2018-11-03T05:47:41.940Z,836.12
2018-11-03T05:50:11.881Z,833.80
2018-11-03T05:52:41.421Z,832.73
2018-11-03T05:55:11.154Z,851.95
2018-11-03T05:57:40.547Z,848.00
2018-11-03T06:00:10.645Z,843.22
2018-11-03T06:02:40.178Z,830.08
2018-11-03T06:05:10.236Z,827.20
2018-11-03T06:07:39.682Z,840.00
2018-11-03T06:10:09.432Z,831.10
2018-11-03T06:12:39.700Z,830.50
2018-11-03T06:15:09.192Z,840.77
2018-11-03T06:17:38.727Z,849.37
2018-11-03T06:20:08.345Z,849.80
2018-11-03T06:22:37.994Z,848.23
2018-11-03T06:25:09.086Z,865.83
2018-11-03T06:27:38.985Z,873.95
2018-11-03T06:30:10.126Z,868.33
2018-11-03T06:32:40.340Z,867.30
2018-11-03T06:35:11.724Z,872.05
2018-11-03T06:37:41.030Z,862.78
2018-11-03T06:40:10.567Z,858.02
2018-11-03T06:42:41.129Z,863.35
2018-11-03T06:45:11.257Z,867.88
2018-11-03T06:47:40.671Z,875.25
2018-11-03T06:50:10.258Z,865.70
2018-11-03T06:52:39.813Z,872.98
2018-11-03T06:55:09.229Z,862.27
2018-11-03T06:57:38.762Z,852.77
2018-11-03T07:00:09.269Z,869.37
2018-11-03T07:02:38.775Z,867.13
2018-11-03T07:05:09.169Z,859.90
2018-11-03T07:07:38.821Z,879.92
2018-11-03T07:10:09.178Z,877.05
2018-11-03T07:12:38.863Z,875.33
2018-11-03T07:15:09.158Z,861.40
2018-11-03T07:17:38.667Z,872.17
2018-11-03T07:20:09.619Z,870.13
2018-11-03T07:22:39.112Z,873.42
2018-11-03T07:25:08.755Z,861.15
2018-11-03T07:27:38.191Z,874.50
2018-11-03T07:30:10.730Z,866.20
2018-11-03T07:32:40.241Z,883.17
2018-11-03T07:35:09.722Z,880.63
2018-11-03T07:37:39.244Z,879.65
2018-11-03T07:40:10.458Z,881.85
2018-11-03T07:42:40.195Z,887.25
2018-11-03T07:45:10.551Z,870.12
2018-11-03T07:47:39.997Z,878.33
2018-11-03T07:50:11.335Z,877.85
2018-11-03T07:52:41.161Z,893.58
2018-11-03T07:55:12.017Z,886.82
2018-11-03T07:57:41.472Z,884.50
2018-11-03T08:00:12.824Z,889.90
2018-11-03T08:02:42.410Z,894.55
2018-11-03T08:05:12.532Z,898.95
2018-11-03T08:07:42.035Z,902.90
2018-11-03T08:10:12.849Z,903.03
2018-11-03T08:12:42.454Z,910.28
2018-11-03T08:15:12.666Z,904.40
2018-11-03T08:17:42.199Z,909.60
2018-11-03T08:20:12.137Z,916.73
2018-11-03T08:22:41.620Z,896.53
2018-11-03T08:25:11.127Z,917.90
2018-11-03T08:27:40.641Z,917.15
2018-11-03T08:30:12.266Z,924.05
2018-11-03T08:32:41.993Z,932.02
2018-11-03T08:35:12.224Z,943.30
2018-11-03T08:37:41.748Z,949.05
2018-11-03T08:40:12.352Z,960.20
2018-11-03T08:42:43.495Z,956.35
2018-11-03T08:45:13.032Z,961.37
2018-11-03T08:47:42.576Z,960.13
2018-11-03T08:50:13.579Z,957.98
2018-11-03T08:52:43.713Z,952.95
2018-11-03T08:55:13.848Z,962.35
2018-11-03T08:57:43.752Z,965.15
2018-11-03T09:00:14.443Z,962.03
2018-11-03T09:02:44.340Z,963.03
2018-11-03T09:05:13.770Z,962.37
2018-11-03T09:07:43.238Z,964.45
2018-11-03T09:10:14.019Z,960.13
2018-11-03T09:12:43.718Z,970.40
2018-11-03T09:15:14.868Z,972.80
2018-11-03T09:17:44.778Z,969.73
2018-11-03T09:20:14.346Z,964.50
2018-11-03T09:22:43.910Z,965.98
2018-11-03T09:25:14.555Z,970.40
2018-11-03T09:27:44.571Z,966.20
2018-11-03T09:30:16.199Z,959.45
2018-11-03T09:32:45.790Z,976.73
2018-11-03T09:35:16.055Z,969.40
2018-11-03T09:37:45.624Z,961.55
2018-11-03T09:40:16.511Z,959.75
2018-11-03T09:42:46.716Z,959.17
2018-11-03T09:45:16.249Z,970.70
2018-11-03T09:47:45.959Z,957.73
2018-11-03T09:50:15.963Z,964.52
2018-11-03T09:52:45.543Z,957.83
2018-11-03T09:55:16.752Z,950.07
2018-11-03T09:57:46.264Z,971.70
2018-11-03T10:00:17.069Z,970.73
2018-11-03T10:02:47.569Z,968.95
2018-11-03T10:05:17.391Z,974.60
2018-11-03T10:07:46.859Z,962.00
2018-11-03T10:10:17.792Z,974.98
2018-11-03T10:12:48.048Z,972.90
2018-11-03T10:15:18.570Z,978.75
2018-11-03T10:17:48.152Z,979.83
2018-11-03T10:20:17.670Z,970.65
2018-11-03T10:22:47.295Z,975.85
2018-11-03T10:25:18.157Z,971.65
2018-11-03T10:27:49.200Z,971.20
2018-11-03T10:30:18.973Z,977.48
2018-11-03T10:32:48.420Z,979.18
2018-11-03T10:35:18.506Z,985.30
2018-11-03T10:37:48.019Z,983.60
2018-11-03T10:40:18.724Z,986.17
2018-11-03T10:42:49.170Z,1001.20
2018-11-03T10:45:18.680Z,990.27
2018-11-03T10:47:48.153Z,996.30
2018-11-03T10:50:18.931Z,998.55
2018-11-03T10:52:48.630Z,1006.90
2018-11-03T10:55:19.121Z,1000.02
2018-11-03T10:57:48.698Z,984.85
2018-11-03T11:00:24.715Z,994.80
2018-11-03T11:02:59.875Z,995.27
2018-11-03T11:05:35.514Z,995.67
2018-11-03T11:08:10.343Z,996.23
2018-11-03T11:10:45.235Z,1002.58
2018-11-03T11:13:20.778Z,1009.35
2018-11-03T11:15:51.846Z,995.83
2018-11-03T11:18:25.082Z,994.55
2018-11-03T11:20:54.654Z,986.40
2018-11-03T11:23:25.130Z,998.25
2018-11-03T11:25:54.634Z,991.27
2018-11-03T11:28:24.163Z,1002.10
2018-11-03T11:30:59.009Z,995.57
2018-11-03T11:33:28.495Z,985.37
2018-11-03T11:35:57.946Z,976.90
2018-11-03T11:38:29.048Z,977.95
2018-11-03T11:40:58.477Z,984.92
2018-11-03T11:43:28.027Z,975.95
2018-11-03T11:45:57.527Z,986.58
2018-11-03T11:48:26.923Z,978.00
2018-11-03T11:50:56.356Z,975.33
2018-11-03T11:53:25.842Z,979.65
2018-11-03T11:55:55.435Z,985.75
2018-11-03T11:58:24.875Z,986.28
2018-11-03T12:00:57.537Z,988.20
2018-11-03T12:03:27.025Z,990.60
2018-11-03T12:05:56.441Z,998.13
2018-11-03T12:08:25.935Z,999.07
2018-11-03T12:10:55.565Z,1000.13
2018-11-03T12:13:25.062Z,1004.63
2018-11-03T12:15:54.528Z,1012.47
2018-11-03T12:18:24.055Z,1011.07
2018-11-03T12:20:54.065Z,1026.33
2018-11-03T12:23:23.486Z,1009.80
2018-11-03T12:25:52.979Z,1010.35
2018-11-03T12:28:23.016Z,1016.05
2018-11-03T12:30:52.496Z,999.50
2018-11-03T12:33:21.924Z,995.88
2018-11-03T12:35:51.524Z,1005.60
2018-11-03T12:38:22.052Z,1011.07
2018-11-03T12:40:51.641Z,1004.85
2018-11-03T12:43:21.230Z,1005.20
2018-11-03T12:45:54.680Z,1008.83
2018-11-03T12:48:24.273Z,1005.02
2018-11-03T12:50:53.590Z,999.92
2018-11-03T12:53:23.141Z,1004.60
2018-11-03T12:55:52.522Z,1003.37
2018-11-03T12:58:22.787Z,1000.40
2018-11-03T13:00:52.308Z,1003.05
2018-11-03T13:03:23.016Z,1000.87
2018-11-03T13:05:52.369Z,997.80
2018-11-03T13:08:21.815Z,991.55
2018-11-03T13:10:52.370Z,984.70
2018-11-03T13:13:21.832Z,985.88
2018-11-03T13:15:52.290Z,995.55
2018-11-03T13:18:24.202Z,993.85
2018-11-03T13:20:53.573Z,983.50
2018-11-03T13:23:23.021Z,982.47
2018-11-03T13:25:52.477Z,988.85
2018-11-03T13:28:29.273Z,997.05
2018-11-03T13:30:58.745Z,999.25
2018-11-03T13:33:28.194Z,1012.85
2018-11-03T13:35:57.608Z,989.87
2018-11-03T13:38:27.048Z,980.45
2018-11-03T13:40:56.781Z,982.13
2018-11-03T13:43:28.057Z,978.75
2018-11-03T13:45:57.472Z,982.32
2018-11-03T13:48:29.669Z,994.35
2018-11-03T13:50:59.136Z,986.80
2018-11-03T13:53:28.647Z,991.02
2018-11-03T13:55:58.782Z,987.08
2018-11-03T13:58:28.321Z,989.00
2018-11-03T14:00:57.751Z,1004.45
2018-11-03T14:03:28.273Z,1007.80
2018-11-03T14:05:59.069Z,1000.40
2018-11-03T14:08:28.564Z,992.13
2018-11-03T14:10:58.028Z,1007.10
2018-11-03T14:13:28.618Z,1003.55
2018-11-03T14:15:59.188Z,992.40
2018-11-03T14:18:29.606Z,977.07
2018-11-03T14:21:00.077Z,965.35
2018-11-03T14:23:29.540Z,949.32
2018-11-03T14:25:58.955Z,949.42
2018-11-03T14:28:28.383Z,963.08
2018-11-03T14:30:57.903Z,957.10
2018-11-03T14:33:27.420Z,971.20
2018-11-03T14:35:56.818Z,973.70
2018-11-03T14:38:26.346Z,956.95
2018-11-03T14:40:55.888Z,962.20
2018-11-03T14:43:25.399Z,956.05
2018-11-03T14:45:54.992Z,967.05
2018-11-03T14:48:24.464Z,961.80
2018-11-03T14:50:54.967Z,964.95
2018-11-03T14:53:25.380Z,957.00
2018-11-03T14:55:54.766Z,957.20
2018-11-03T14:58:24.328Z,974.05
2018-11-03T15:00:53.812Z,970.57
2018-11-03T15:03:23.350Z,964.40
2018-11-03T15:05:52.987Z,957.07
2018-11-03T15:08:23.454Z,947.40
2018-11-03T15:10:52.971Z,949.50
2018-11-03T15:13:22.397Z,948.83
2018-11-03T15:15:54.884Z,951.25
2018-11-03T15:18:24.354Z,950.07
2018-11-03T15:20:53.847Z,944.28
2018-11-03T15:23:26.379Z,943.95
2018-11-03T15:25:55.917Z,938.38
2018-11-03T15:28:26.400Z,945.60
2018-11-03T15:30:55.957Z,943.25
2018-11-03T15:33:25.388Z,938.97
2018-11-03T15:35:55.020Z,937.57
2018-11-03T15:38:24.546Z,940.25
2018-11-03T15:40:54.174Z,940.12
2018-11-03T15:43:23.629Z,944.67
2018-11-03T15:45:53.265Z,934.55
2018-11-03T15:48:22.773Z,935.25
2018-11-03T15:50:52.798Z,931.60
2018-11-03T15:53:23.268Z,932.58
2018-11-03T15:55:53.773Z,932.95
2018-11-03T15:58:23.277Z,932.20
2018-11-03T16:00:53.438Z,936.60
2018-11-03T16:03:23.632Z,928.55
2018-11-03T16:05:53.085Z,925.75
2018-11-03T16:08:22.549Z,932.60
2018-11-03T16:10:52.071Z,939.15
2018-11-03T16:13:21.499Z,928.40
2018-11-03T16:15:51.564Z,925.55
2018-11-03T16:18:21.002Z,929.30
2018-11-03T16:20:51.560Z,926.75
2018-11-03T16:23:21.079Z,919.67
2018-11-03T16:25:50.670Z,924.35
2018-11-03T16:28:20.166Z,938.37
2018-11-03T16:30:49.672Z,924.85
2018-11-03T16:33:19.207Z,937.78
2018-11-03T16:35:49.736Z,940.20
2018-11-03T16:38:19.277Z,933.85
2018-11-03T16:40:48.838Z,931.10
2018-11-03T16:43:19.287Z,930.87
2018-11-03T16:45:49.786Z,923.70
2018-11-03T16:48:19.183Z,925.05
2018-11-03T16:50:48.705Z,934.52
2018-11-03T16:53:18.211Z,936.53
2018-11-03T16:55:48.790Z,936.22
2018-11-03T16:58:18.301Z,933.38
2018-11-03T17:00:47.786Z,935.95
2018-11-03T17:03:17.989Z,924.58
2018-11-03T17:05:47.576Z,927.35
2018-11-03T17:08:17.111Z,921.78
2018-11-03T17:10:46.729Z,925.05
2018-11-03T17:13:17.236Z,926.40
2018-11-03T17:15:46.771Z,920.05
2018-11-03T17:18:16.250Z,923.30
2018-11-03T17:20:45.847Z,926.15
2018-11-03T17:23:15.498Z,944.05
2018-11-03T17:25:44.905Z,934.65
2018-11-03T17:28:14.488Z,923.67
2018-11-03T17:30:44.217Z,930.65
2018-11-03T17:33:13.647Z,935.77
2018-11-03T17:35:43.077Z,928.58
2018-11-03T17:38:12.680Z,922.98
2018-11-03T17:40:42.892Z,928.70
2018-11-03T17:43:12.364Z,922.15
2018-11-03T17:45:42.432Z,922.40
2018-11-03T17:48:11.849Z,935.77
2018-11-03T17:50:41.809Z,933.40
2018-11-03T17:53:11.335Z,936.92
2018-11-03T17:55:42.417Z,931.63
2018-11-03T17:58:14.927Z,936.87
2018-11-03T18:00:44.650Z,939.90
2018-11-03T18:03:13.958Z,940.87
2018-11-03T18:05:43.582Z,937.10
2018-11-03T18:08:13.146Z,936.70
2018-11-03T18:10:42.649Z,940.05
2018-11-03T18:13:12.326Z,952.70
2018-11-03T18:15:41.785Z,945.35
2018-11-03T18:18:11.339Z,941.40
2018-11-03T18:20:40.832Z,937.72
2018-11-03T18:23:10.407Z,938.90
2018-11-03T18:25:40.797Z,931.27
2018-11-03T18:28:10.261Z,929.42
2018-11-03T18:30:39.805Z,937.27
2018-11-03T18:33:09.359Z,923.00
2018-11-03T18:35:38.786Z,915.05
2018-11-03T18:38:08.316Z,921.57
2018-11-03T18:40:37.890Z,925.07
2018-11-03T18:43:08.136Z,925.35
2018-11-03T18:45:37.711Z,923.98
2018-11-03T18:48:07.243Z,924.60
2018-11-03T18:50:36.702Z,936.67
2018-11-03T18:53:06.124Z,935.43
2018-11-03T18:55:35.564Z,933.15
2018-11-03T18:58:05.104Z,937.88
2018-11-03T19:00:34.624Z,920.57
2018-11-03T19:03:05.207Z,910.73
2018-11-03T19:05:34.713Z,908.73
2018-11-03T19:08:04.275Z,913.17
2018-11-03T19:10:33.812Z,914.45
2018-11-03T19:13:03.398Z,918.95
2018-11-03T19:15:33.880Z,936.65
2018-11-03T19:18:03.490Z,925.07
2018-11-03T19:20:33.058Z,920.33
2018-11-03T19:23:02.544Z,913.27
2018-11-03T19:25:33.085Z,915.72
2018-11-03T19:28:05.285Z,915.60
2018-11-03T19:30:34.766Z,912.60
2018-11-03T19:33:04.266Z,915.87
2018-11-03T19:35:33.748Z,909.55
2018-11-03T19:38:03.160Z,922.02
2018-11-03T19:40:32.562Z,917.88
2018-11-03T19:43:02.087Z,933.27
2018-11-03T19:45:32.523Z,916.95
2018-11-03T19:48:01.989Z,904.95
2018-11-03T19:50:31.427Z,910.40
2018-11-03T19:53:00.978Z,900.80
2018-11-03T19:55:30.427Z,907.73
2018-11-03T19:57:59.938Z,904.87
2018-11-03T20:00:29.430Z,903.43
2018-11-03T20:02:58.926Z,909.57
2018-11-03T20:05:28.286Z,904.35
2018-11-03T20:07:58.773Z,903.42
2018-11-03T20:10:28.174Z,911.67
2018-11-03T20:12:58.379Z,911.20
2018-11-03T20:15:27.932Z,918.30
2018-11-03T20:17:57.532Z,921.18
2018-11-03T20:20:28.004Z,911.88
2018-11-03T20:22:58.487Z,903.60
2018-11-03T20:25:28.715Z,910.50
2018-11-03T20:28:00.189Z,900.95
2018-11-03T20:30:29.769Z,902.97
2018-11-03T20:32:59.290Z,897.00
2018-11-03T20:35:28.708Z,895.33
2018-11-03T20:37:58.748Z,873.83
2018-11-03T20:40:28.309Z,878.92
2018-11-03T20:42:58.815Z,886.17
2018-11-03T20:45:28.327Z,871.85
2018-11-03T20:47:57.831Z,874.00
2018-11-03T20:50:27.360Z,883.65
2018-11-03T20:52:56.946Z,871.15
2018-11-03T20:55:26.366Z,884.45
2018-11-03T20:57:55.784Z,883.90
2018-11-03T21:00:25.236Z,878.27
2018-11-03T21:02:54.801Z,882.60
2018-11-03T21:05:24.221Z,878.58
2018-11-03T21:07:53.677Z,878.52
2018-11-03T21:10:23.804Z,882.60
2018-11-03T21:12:53.316Z,878.67
2018-11-03T21:15:22.728Z,872.10
2018-11-03T21:17:53.170Z,868.85
2018-11-03T21:20:23.705Z,858.20
2018-11-03T21:22:53.249Z,862.42
2018-11-03T21:25:22.750Z,835.75
2018-11-03T21:27:52.153Z,835.95
2018-11-03T21:30:21.604Z,838.20
2018-11-03T21:32:51.148Z,823.10
2018-11-03T21:35:20.590Z,829.15
2018-11-03T21:37:50.025Z,814.32
2018-11-03T21:40:19.722Z,810.17
2018-11-03T21:42:49.218Z,805.72
2018-11-03T21:45:22.747Z,818.73
2018-11-03T21:47:53.175Z,818.05
2018-11-03T21:50:23.747Z,824.40
2018-11-03T21:52:53.192Z,825.25
2018-11-03T21:55:23.724Z,828.30
2018-11-03T21:57:53.353Z,813.45
2018-11-03T22:00:22.800Z,817.40
2018-11-03T22:02:52.259Z,822.83
2018-11-03T22:05:21.771Z,833.47
2018-11-03T22:07:51.259Z,830.05
2018-11-03T22:10:20.776Z,839.83
2018-11-03T22:12:51.098Z,839.58
2018-11-03T22:15:20.583Z,829.57
2018-11-03T22:17:51.060Z,828.40
2018-11-03T22:20:21.238Z,828.52
2018-11-03T22:22:53.102Z,848.20
2018-11-03T22:25:22.636Z,847.57
2018-11-03T22:27:53.198Z,843.13
2018-11-03T22:30:22.639Z,845.05
2018-11-03T22:32:53.197Z,836.05
2018-11-03T22:35:22.628Z,836.45
2018-11-03T22:37:52.083Z,835.55
2018-11-03T22:40:21.594Z,842.73
2018-11-03T22:42:51.081Z,836.52
2018-11-03T22:45:21.484Z,855.45
2018-11-03T22:47:50.898Z,847.48
2018-11-03T22:51:18.264Z,841.13
2018-11-03T22:53:48.519Z,849.43
2018-11-03T22:56:19.000Z,847.23
2018-11-03T22:58:48.510Z,840.77
2018-11-03T23:01:18.114Z,839.40
2018-11-03T23:03:47.540Z,843.37
2018-11-03T23:06:20.843Z,855.00
2018-11-03T23:08:51.283Z,851.65
2018-11-03T23:11:21.783Z,856.50
2018-11-03T23:13:51.270Z,866.23
2018-11-03T23:16:20.629Z,869.65
2018-11-03T23:18:50.142Z,890.23
2018-11-03T23:21:20.651Z,900.55
2018-11-03T23:23:53.219Z,908.65
2018-11-03T23:26:23.448Z,912.55
2018-11-03T23:28:53.040Z,924.13
2018-11-03T23:31:22.490Z,930.85
2018-11-03T23:33:52.885Z,943.58
2018-11-03T23:36:23.085Z,953.30
2018-11-03T23:38:53.244Z,954.42
2018-11-03T23:41:22.786Z,943.28
2018-11-03T23:43:52.155Z,942.35
2018-11-03T23:46:21.744Z,947.98
2018-11-03T23:48:51.265Z,930.93
2018-11-03T23:51:20.691Z,919.85
2018-11-03T23:53:50.292Z,911.63
2018-11-03T23:56:20.566Z,897.83
2018-11-03T23:58:50.072Z,894.40
